Time;durP1;ratioP1;P1;durP2;ratioP2;P2;SDS_P1;SDS_P2;PMS_P1;PMS_P2;Temp;Humidity;BMP_temperature;BMP_pressure;BME280_temperature;BME280_humidity;BME280_pressure;Samples;Min_cycle;Max_cycle;Signal;HPM_P1;HPM_P2
2022/06/16 00:00:14;;;;;;;1.95;0.25;;;16.20;99.90;;;;;;5096273;28;20024;-77
2022/06/16 00:02:40;;;;;;;3.05;0.40;;;16.10;99.90;;;;;;5078148;28;20016;-77
2022/06/16 00:05:09;;;;;;;2.65;0.52;;;16.00;99.90;;;;;;5095999;28;20423;-77
2022/06/16 00:07:35;;;;;;;;;;;15.90;99.90;;;;;;5078374;28;20031;-76
2022/06/16 00:10:02;;;;;;;1.08;0.30;;;15.90;99.90;;;;;;5096109;28;19957;-76
2022/06/16 00:12:28;;;;;;;4.82;0.52;;;15.80;99.90;;;;;;5096000;28;20031;-76
2022/06/16 00:14:54;;;;;;;3.42;0.22;;;15.70;99.90;;;;;;5095872;28;20024;-77
2022/06/16 00:17:19;;;;;;;4.43;0.30;;;15.60;99.90;;;;;;5096066;28;20047;-77
2022/06/16 00:19:45;;;;;;;1.08;0.22;;;15.50;99.90;;;;;;5096291;28;20043;-77
2022/06/16 00:22:10;;;;;;;1.20;0.20;;;15.40;99.90;;;;;;5077733;28;20031;-77
2022/06/16 00:24:36;;;;;;;2.15;0.75;;;15.40;99.90;;;;;;5096427;28;20027;-77
2022/06/16 00:27:01;;;;;;;1.77;0.35;;;15.30;99.90;;;;;;5078040;28;20026;-77
2022/06/16 00:29:27;;;;;;;5.28;0.55;;;15.20;99.90;;;;;;5096226;28;20019;-77
2022/06/16 00:31:53;;;;;;;2.65;0.25;;;15.10;99.90;;;;;;5095783;28;20112;-77
2022/06/16 00:34:19;;;;;;;4.70;0.20;;;15.10;99.90;;;;;;5095561;28;20024;-77
2022/06/16 00:36:44;;;;;;;4.47;0.40;;;14.90;99.90;;;;;;5095543;28;20035;-77
2022/06/16 00:39:10;;;;;;;2.88;0.43;;;14.90;99.90;;;;;;5095809;28;20044;-77
2022/06/16 00:41:35;;;;;;;3.78;0.63;;;14.80;99.90;;;;;;5095470;28;20032;-77
2022/06/16 00:44:10;;;;;;;2.72;0.28;;;14.80;99.90;;;;;;5076537;28;20019;-76
2022/06/16 00:46:36;;;;;;;2.67;0.40;;;14.70;99.90;;;;;;5095266;28;20032;-76
2022/06/16 00:49:06;;;;;;;3.10;0.45;;;14.70;99.90;;;;;;5095271;28;20545;-76
2022/06/16 00:51:34;;;;;;;0.70;0.40;;;14.70;99.90;;;;;;5095868;28;20107;-75
2022/06/16 00:54:19;;;;;;;1.98;0.30;;;14.60;99.90;;;;;;5095411;28;20039;-75
2022/06/16 00:56:47;;;;;;;2.35;0.70;;;14.50;99.90;;;;;;5095212;28;20501;-75
2022/06/16 00:59:12;;;;;;;1.35;0.55;;;14.50;99.90;;;;;;5095661;28;20101;-75
2022/06/16 01:01:40;;;;;;;2.15;0.50;;;14.30;99.90;;;;;;5095204;28;20031;-76
2022/06/16 01:06:52;;;;;;;1.13;0.20;;;14.20;99.90;;;;;;5095118;28;20035;-75
2022/06/16 01:09:27;;;;;;;3.25;0.70;;;14.10;99.90;;;;;;5095324;28;20020;-75
2022/06/16 01:15:01;;;;;;;1.75;0.43;;;14.00;99.90;;;;;;5095451;28;20082;-76
2022/06/16 01:17:36;;;;;;;2.38;0.28;;;13.90;99.90;;;;;;5094784;28;20477;-75
2022/06/16 01:20:37;;;;;;;2.05;0.88;;;13.90;99.90;;;;;;5094771;28;20469;-75
2022/06/16 01:23:31;;;;;;;1.33;0.60;;;13.80;99.90;;;;;;5095219;28;20035;-75
2022/06/16 01:26:21;;;;;;;2.25;0.50;;;13.60;99.90;;;;;;5076447;28;20569;-76
2022/06/16 01:29:09;;;;;;;1.52;0.30;;;13.60;99.90;;;;;;5094803;28;20084;-75
2022/06/16 01:31:56;;;;;;;3.30;0.30;;;13.50;99.90;;;;;;5094532;28;20031;-75
2022/06/16 01:34:49;;;;;;;3.20;0.30;;;13.40;99.90;;;;;;5076339;28;20107;-75
2022/06/16 01:37:29;;;;;;;4.25;0.57;;;13.30;99.90;;;;;;5094876;28;20416;-75
2022/06/16 01:40:15;;;;;;;5.55;0.45;;;13.20;99.90;;;;;;5076296;28;20028;-75
2022/06/16 01:43:17;;;;;;;3.40;0.68;;;13.10;99.90;;;;;;5094251;28;20442;-75
2022/06/16 01:45:52;;;;;;;1.52;0.80;;;13.10;99.90;;;;;;5049340;28;20028;-75
2022/06/16 01:48:20;;;;;;;1.73;0.77;;;13.00;99.90;;;;;;5094177;28;20028;-75
2022/06/16 01:51:13;;;;;;;1.75;0.52;;;12.90;99.90;;;;;;5111599;22;20400;-75
2022/06/16 01:53:45;;;;;;;1.90;0.52;;;12.90;99.90;;;;;;5094753;28;20024;-75
2022/06/16 01:56:42;;;;;;;2.28;0.73;;;12.80;99.90;;;;;;5094012;28;20063;-75
2022/06/16 01:59:14;;;;;;;4.73;0.50;;;12.70;99.90;;;;;;5093199;28;20381;-75
2022/06/16 02:01:45;;;;;;;2.22;0.55;;;12.70;99.90;;;;;;5094148;28;20020;-75
2022/06/16 02:04:18;;;;;;;6.03;0.73;;;12.70;99.90;;;;;;5093985;28;20027;-75
2022/06/16 02:06:49;;;;;;;2.08;0.60;;;12.70;99.90;;;;;;5093934;28;20070;-75
2022/06/16 02:09:22;;;;;;;3.90;1.05;;;12.70;99.90;;;;;;5093797;28;20058;-75
2022/06/16 02:11:49;;;;;;;3.45;0.25;;;12.60;99.90;;;;;;5094378;28;20077;-76
2022/06/16 02:14:23;;;;;;;2.33;0.38;;;12.60;99.90;;;;;;5093999;28;20473;-76
2022/06/16 02:16:50;;;;;;;2.70;0.77;;;12.50;99.90;;;;;;5093582;28;20021;-75
2022/06/16 02:19:21;;;;;;;3.05;0.93;;;12.40;99.90;;;;;;5093781;28;20059;-75
2022/06/16 02:21:49;;;;;;;1.17;0.52;;;12.30;99.90;;;;;;5094272;28;20065;-75
2022/06/16 02:24:17;;;;;;;1.02;0.40;;;12.30;99.90;;;;;;5075678;28;20195;-75
2022/06/16 02:26:44;;;;;;;2.00;0.47;;;12.20;99.90;;;;;;5075473;28;20020;-75
2022/06/16 02:29:22;;;;;;;2.80;0.47;;;12.20;99.90;;;;;;5093600;28;20035;-75
2022/06/16 02:32:06;;;;;;;1.70;0.45;;;12.10;99.90;;;;;;5075445;28;20523;-75
2022/06/16 02:35:07;;;;;;;2.75;0.55;;;12.00;99.90;;;;;;5093547;28;20035;-75
2022/06/16 02:38:03;;;;;;;2.83;0.70;;;12.00;99.90;;;;;;5093409;28;20484;-75
2022/06/16 02:40:49;;;;;;;1.88;0.45;;;11.90;99.90;;;;;;5094039;28;20059;-75
2022/06/16 02:43:21;;;;;;;4.72;0.60;;;11.90;99.90;;;;;;5093721;28;20021;-74
2022/06/16 02:46:00;;;;;;;3.58;0.57;;;11.80;99.90;;;;;;5093929;28;20032;-74
2022/06/16 02:48:58;;;;;;;5.53;1.17;;;11.70;99.90;;;;;;5093464;28;20027;-75
2022/06/16 02:51:42;;;;;;;4.80;0.50;;;11.60;99.90;;;;;;5044885;28;20602;-76
2022/06/16 02:54:41;;;;;;;4.15;0.88;;;11.60;99.90;;;;;;5093577;28;20032;-73
2022/06/16 02:57:23;;;;;;;4.03;1.05;;;11.50;99.90;;;;;;5093496;28;20030;-75
2022/06/16 02:59:52;;;;;;;2.70;0.95;;;11.40;99.90;;;;;;5093798;28;20112;-75
2022/06/16 03:02:20;;;;;;;4.78;0.98;;;11.40;99.90;;;;;;5075185;28;20016;-75
2022/06/16 03:04:50;;;;;;;3.30;0.80;;;11.40;99.90;;;;;;5093213;28;20031;-75
2022/06/16 03:07:17;;;;;;;2.47;1.20;;;11.40;99.90;;;;;;5095916;28;20047;-75
2022/06/16 03:09:43;;;;;;;6.07;0.85;;;11.30;99.90;;;;;;5097774;28;20439;-75
2022/06/16 03:12:10;;;;;;;3.25;0.70;;;11.30;99.90;;;;;;5079098;28;20088;-75
2022/06/16 03:14:36;;;;;;;3.42;0.85;;;11.20;99.90;;;;;;5078994;28;20043;-74
2022/06/16 03:17:03;;;;;;;2.30;0.82;;;11.20;99.90;;;;;;5096916;28;20108;-73
2022/06/16 03:19:29;;;;;;;3.78;0.50;;;11.20;99.90;;;;;;5078934;28;20027;-73
2022/06/16 03:21:56;;;;;;;1.90;1.13;;;11.10;99.90;;;;;;5096868;28;20020;-74
2022/06/16 03:24:21;;;;;;;1.85;0.90;;;11.10;99.90;;;;;;5078524;28;20069;-74
2022/06/16 03:26:47;;;;;;;3.30;0.98;;;11.10;99.90;;;;;;5097170;28;20036;-73
2022/06/16 03:29:13;;;;;;;1.83;0.60;;;11.10;99.90;;;;;;5096946;28;20077;-73
2022/06/16 03:31:40;;;;;;;1.80;0.88;;;11.00;99.90;;;;;;5097015;28;20059;-73
2022/06/16 03:34:06;;;;;;;2.05;0.82;;;11.00;99.90;;;;;;5096506;28;20024;-73
2022/06/16 03:36:32;;;;;;;4.60;1.30;;;11.00;99.90;;;;;;5096470;28;20038;-73
2022/06/16 03:38:58;;;;;;;6.47;0.90;;;11.00;99.90;;;;;;5096761;28;20012;-73
2022/06/16 03:41:23;;;;;;;2.53;1.02;;;11.00;99.90;;;;;;5078341;28;20032;-73
2022/06/16 03:43:49;;;;;;;2.72;1.60;;;11.00;99.90;;;;;;5078391;28;20109;-73
2022/06/16 03:46:16;;;;;;;4.80;1.50;;;11.00;99.90;;;;;;5078339;28;20472;-73
2022/06/16 03:48:42;;;;;;;7.53;1.88;;;11.00;99.90;;;;;;5078335;28;20027;-73
2022/06/16 03:51:09;;;;;;;2.63;1.08;;;11.00;99.90;;;;;;5096593;28;20035;-73
2022/06/16 03:53:35;;;;;;;1.73;0.70;;;11.10;99.90;;;;;;5096443;28;20023;-73
2022/06/16 03:56:01;;;;;;;1.60;0.90;;;11.10;99.90;;;;;;5096630;28;20137;-73
2022/06/16 03:58:26;;;;;;;3.28;1.13;;;11.10;99.90;;;;;;5096619;28;20024;-73
2022/06/16 04:00:52;;;;;;;2.35;1.08;;;11.20;99.90;;;;;;5078002;28;20107;-73
2022/06/16 04:06:02;;;;;;;3.60;1.35;;;11.20;99.90;;;;;;5096882;28;20047;-73
2022/06/16 04:08:28;;;;;;;2.13;1.27;;;11.30;99.90;;;;;;5096170;28;20024;-73
2022/06/16 04:10:54;;;;;;;1.88;1.00;;;11.40;99.90;;;;;;5077920;28;20028;-73
2022/06/16 04:13:20;;;;;;;5.07;1.02;;;11.40;99.90;;;;;;5078137;28;20051;-73
2022/06/16 04:15:46;;;;;;;1.38;0.90;;;11.50;99.90;;;;;;5095927;28;20024;-73
2022/06/16 04:18:12;;;;;;;3.10;1.30;;;11.60;99.90;;;;;;5094713;28;20031;-73
2022/06/16 04:20:38;;;;;;;3.25;1.38;;;11.70;99.90;;;;;;5077930;28;20016;-73
2022/06/16 04:23:03;;;;;;;2.45;0.90;;;11.70;99.90;;;;;;5095907;28;20024;-73
2022/06/16 04:25:32;;;;;;;3.40;1.00;;;11.70;99.90;;;;;;5095950;28;20078;-73
2022/06/16 04:27:59;;;;;;;2.03;0.98;;;11.80;99.90;;;;;;5095517;28;20059;-73
2022/06/16 04:30:25;;;;;;;3.10;1.17;;;11.80;99.90;;;;;;5095814;28;20481;-73
2022/06/16 04:32:51;;;;;;;3.83;0.93;;;12.00;99.90;;;;;;5095835;28;20028;-73
2022/06/16 04:35:17;;;;;;;1.73;0.85;;;12.10;99.90;;;;;;5095640;28;20031;-73
2022/06/16 04:37:42;;;;;;;3.28;1.02;;;12.20;99.90;;;;;;5077608;28;20024;-74
2022/06/16 04:40:09;;;;;;;2.97;0.88;;;12.30;99.90;;;;;;5095593;28;20016;-75
2022/06/16 04:42:35;;;;;;;3.28;0.75;;;12.40;99.90;;;;;;5078523;28;20020;-75
2022/06/16 04:45:01;;;;;;;3.00;0.88;;;12.60;99.90;;;;;;5077417;28;20031;-75
2022/06/16 04:47:26;;;;;;;2.83;0.93;;;12.70;99.90;;;;;;5096369;28;20115;-75
2022/06/16 04:49:52;;;;;;;2.70;0.88;;;12.80;99.90;;;;;;5095410;28;20059;-74
2022/06/16 04:52:18;;;;;;;1.60;1.02;;;12.90;99.90;;;;;;5095576;28;20028;-74
2022/06/16 04:54:48;;;;;;;2.80;0.95;;;13.00;99.90;;;;;;5076997;28;20024;-75
2022/06/16 04:57:14;;;;;;;2.67;0.98;;;13.00;99.90;;;;;;5095064;28;20446;-75
2022/06/16 04:59:40;;;;;;;3.03;0.70;;;13.10;99.90;;;;;;5095207;28;20020;-75
2022/06/16 05:02:06;;;;;;;7.18;0.90;;;13.10;99.90;;;;;;5095489;28;20020;-73
2022/06/16 05:04:32;;;;;;;2.88;1.58;;;13.20;99.90;;;;;;5076867;28;20078;-73
2022/06/16 05:06:57;;;;;;;3.22;0.35;;;13.30;99.90;;;;;;5095184;28;20070;-73
2022/06/16 05:09:23;;;;;;;4.55;0.90;;;13.40;99.90;;;;;;5095068;28;20500;-73
2022/06/16 05:11:49;;;;;;;3.35;1.05;;;13.60;99.90;;;;;;5094817;28;20031;-73
2022/06/16 05:14:15;;;;;;;5.07;1.55;;;13.80;99.90;;;;;;5076738;28;20031;-73
2022/06/16 05:16:41;;;;;;;2.95;0.52;;;13.90;99.90;;;;;;5094680;28;20028;-75
2022/06/16 05:19:06;;;;;;;2.05;0.50;;;14.00;99.90;;;;;;5094769;28;20485;-75
2022/06/16 05:21:32;;;;;;;3.17;0.73;;;14.10;99.90;;;;;;5094741;28;20030;-75
2022/06/16 05:23:57;;;;;;;3.50;0.88;;;14.20;99.90;;;;;;5076720;28;20074;-75
2022/06/16 05:26:23;;;;;;;3.75;1.13;;;14.50;99.90;;;;;;5094556;28;20028;-75
2022/06/16 05:28:49;;;;;;;4.35;0.55;;;14.40;99.90;;;;;;5094212;28;20098;-75
2022/06/16 05:31:14;;;;;;;3.08;0.65;;;14.60;99.90;;;;;;5094596;28;20020;-75
2022/06/16 05:33:41;;;;;;;4.40;0.85;;;14.80;99.90;;;;;;5094734;28;20024;-75
2022/06/16 05:36:10;;;;;;;2.63;0.82;;;14.80;99.90;;;;;;5076116;28;20027;-75
2022/06/16 05:38:37;;;;;;;5.25;0.77;;;14.90;99.90;;;;;;5076422;28;20119;-76
2022/06/16 05:41:13;;;;;;;2.47;0.68;;;15.00;99.90;;;;;;5094848;28;20052;-77
2022/06/16 05:43:40;;;;;;;4.20;0.60;;;15.10;99.90;;;;;;5076865;28;20020;-77
2022/06/16 05:46:07;;;;;;;1.85;0.50;;;15.20;99.90;;;;;;5094287;28;20020;-76
2022/06/16 05:48:33;;;;;;;2.58;0.32;;;15.30;99.90;;;;;;5075879;28;20066;-76
2022/06/16 05:51:04;;;;;;;1.77;0.85;;;15.30;99.90;;;;;;5075959;28;20496;-77
2022/06/16 05:53:30;;;;;;;2.65;0.55;;;15.50;99.90;;;;;;5094362;28;20404;-77
2022/06/16 05:55:55;;;;;;;1.60;0.25;;;15.60;99.90;;;;;;5093916;28;20031;-77
2022/06/16 05:58:21;;;;;;;2.70;0.50;;;15.70;99.90;;;;;;5093990;28;20031;-77
2022/06/16 06:00:46;;;;;;;3.25;0.50;;;15.80;99.90;;;;;;5075743;28;20051;-77
2022/06/16 06:03:12;;;;;;;3.58;0.20;;;16.40;99.90;;;;;;5094022;28;20008;-77
2022/06/16 06:05:38;;;;;;;0.47;0.03;;;16.00;99.90;;;;;;5093726;28;20032;-76
2022/06/16 06:16:25;;;;;;;1.65;0.30;;;16.30;99.90;;;;;;5094493;28;20550;-77
2022/06/16 06:18:56;;;;;;;1.58;0.15;;;16.50;99.90;;;;;;5075570;28;20016;-77
2022/06/16 06:24:11;;;;;;;1.60;0.00;;;16.70;99.90;;;;;;5094582;28;20050;-77
2022/06/16 06:26:37;;;;;;;1.75;0.08;;;16.90;99.90;;;;;;5093470;28;20106;-77
2022/06/16 06:29:04;;;;;;;1.05;0.25;;;17.10;99.90;;;;;;5093566;28;20024;-77
2022/06/16 06:31:30;;;;;;;1.38;0.00;;;17.20;99.90;;;;;;5075441;28;20031;-77
2022/06/16 06:33:56;;;;;;;0.45;0.10;;;17.30;99.90;;;;;;5093718;28;20473;-77
2022/06/16 06:36:21;;;;;;;0.88;0.30;;;17.30;99.90;;;;;;5075323;28;20020;-77
2022/06/16 06:38:47;;;;;;;2.20;0.00;;;17.50;99.40;;;;;;5093327;28;20024;-76
2022/06/16 06:41:12;;;;;;;1.95;0.20;;;17.60;97.20;;;;;;5093157;28;20035;-77
2022/06/16 06:43:38;;;;;;;1.00;0.05;;;17.70;96.70;;;;;;5075172;28;20105;-74
2022/06/16 06:46:04;;;;;;;2.40;0.00;;;17.70;96.80;;;;;;5093253;28;20035;-73
2022/06/16 06:48:29;;;;;;;1.55;0.10;;;17.80;94.80;;;;;;5093317;28;20077;-74
2022/06/16 06:50:55;;;;;;;0.82;0.00;;;17.90;93.10;;;;;;5093356;28;20477;-73
2022/06/16 06:53:20;;;;;;;1.75;0.10;;;17.90;92.10;;;;;;5093209;28;20392;-73
2022/06/16 06:55:50;;;;;;;0.73;0.00;;;18.10;91.20;;;;;;5093026;28;20548;-74
2022/06/16 06:58:23;;;;;;;1.80;0.00;;;18.20;89.10;;;;;;5074985;28;20074;-74
2022/06/16 07:00:51;;;;;;;1.55;0.00;;;18.30;89.60;;;;;;5075282;28;20027;-74
2022/06/16 07:03:17;;;;;;;0.35;0.08;;;18.40;88.90;;;;;;5093128;28;20422;-74
2022/06/16 07:05:43;;;;;;;0.20;0.00;;;18.40;90.00;;;;;;5093354;28;20564;-73
2022/06/16 07:08:09;;;;;;;1.05;0.08;;;18.50;87.10;;;;;;5093651;28;20562;-73
2022/06/16 07:10:34;;;;;;;2.08;0.00;;;18.70;85.60;;;;;;5093152;28;20021;-73
2022/06/16 07:13:00;;;;;;;1.10;0.22;;;18.80;86.10;;;;;;5074905;28;20024;-73
2022/06/16 07:15:25;;;;;;;1.02;0.20;;;18.90;85.20;;;;;;5075135;28;20073;-74
2022/06/16 07:17:51;;;;;;;3.28;0.10;;;19.00;83.80;;;;;;5093184;28;20017;-74
2022/06/16 07:20:17;;;;;;;0.30;0.13;;;19.10;82.90;;;;;;5075082;28;20060;-73
2022/06/16 07:22:44;;;;;;;0.75;0.00;;;19.20;85.10;;;;;;5093098;28;20024;-73
2022/06/16 07:25:11;;;;;;;1.55;0.10;;;19.30;82.90;;;;;;5093018;28;20387;-73
2022/06/16 07:27:36;;;;;;;1.65;0.00;;;19.50;82.40;;;;;;5092975;28;20024;-73
2022/06/16 07:30:13;;;;;;;0.30;0.10;;;19.50;81.20;;;;;;5093148;28;20031;-73
2022/06/16 07:32:38;;;;;;;0.68;0.00;;;19.50;81.10;;;;;;5092989;28;20020;-73
2022/06/16 07:35:04;;;;;;;2.30;0.32;;;19.50;80.90;;;;;;5092860;28;20389;-73
2022/06/16 07:37:29;;;;;;;1.25;0.00;;;19.60;80.50;;;;;;5092837;28;20382;-73
2022/06/16 07:39:55;;;;;;;0.77;0.00;;;19.70;77.10;;;;;;5093140;28;20028;-73
2022/06/16 07:42:21;;;;;;;0.95;0.00;;;19.80;79.60;;;;;;5093420;28;20027;-73
2022/06/16 07:44:46;;;;;;;1.13;0.00;;;19.90;76.30;;;;;;5092894;28;20553;-73
2022/06/16 07:47:12;;;;;;;1.75;0.00;;;20.10;77.70;;;;;;5074292;28;20032;-73
2022/06/16 07:49:37;;;;;;;1.20;0.10;;;20.20;75.90;;;;;;5092752;28;20032;-73
2022/06/16 07:52:03;;;;;;;2.65;0.10;;;20.20;73.30;;;;;;5093322;28;20029;-73
2022/06/16 07:54:29;;;;;;;1.02;0.00;;;20.30;73.00;;;;;;5096441;28;20031;-73
2022/06/16 07:56:56;;;;;;;2.47;0.10;;;20.30;71.90;;;;;;5096224;28;20122;-73
2022/06/16 07:59:21;;;;;;;2.22;0.00;;;20.40;71.60;;;;;;5096334;28;20020;-73
2022/06/16 08:01:47;;;;;;;1.58;0.22;;;20.50;71.90;;;;;;5077842;28;20489;-73
2022/06/16 08:04:13;;;;;;;0.90;0.30;;;20.70;71.40;;;;;;5096267;28;20099;-73
2022/06/16 08:06:39;;;;;;;1.70;0.03;;;20.70;71.00;;;;;;5096035;28;20050;-72
2022/06/16 08:09:07;;;;;;;0.93;0.22;;;20.80;70.90;;;;;;5096157;28;20024;-72
2022/06/16 08:14:18;;;;;;;2.35;0.00;;;21.00;69.90;;;;;;5096357;28;20043;-72
2022/06/16 08:16:43;;;;;;;0.20;0.00;;;21.10;68.50;;;;;;5095773;28;20032;-72
2022/06/16 08:19:09;;;;;;;0.65;0.00;;;21.10;69.80;;;;;;5095925;28;20016;-73
2022/06/16 08:21:35;;;;;;;1.80;0.00;;;21.20;68.20;;;;;;5095876;28;20035;-73
2022/06/16 08:24:01;;;;;;;2.22;0.17;;;21.30;68.40;;;;;;5096404;28;20046;-73
2022/06/16 08:26:26;;;;;;;0.22;0.00;;;21.30;67.50;;;;;;5095903;28;20026;-73
2022/06/16 08:28:53;;;;;;;3.80;0.00;;;21.40;68.00;;;;;;5095705;28;20030;-73
2022/06/16 08:31:21;;;;;;;0.95;0.10;;;21.50;68.60;;;;;;5095616;28;20032;-73
2022/06/16 08:33:48;;;;;;;0.60;0.20;;;21.60;66.60;;;;;;5095626;28;20029;-73
2022/06/16 08:36:14;;;;;;;1.08;0.00;;;21.50;66.80;;;;;;5095454;28;20020;-73
2022/06/16 08:38:40;;;;;;;1.35;0.30;;;21.60;65.50;;;;;;5095560;28;20020;-73
2022/06/16 08:41:13;;;;;;;4.85;0.05;;;21.70;65.90;;;;;;5095559;28;20024;-73
2022/06/16 08:44:17;;;;;;;1.75;0.00;;;21.40;64.90;;;;;;5095486;28;20016;-73
2022/06/16 08:47:02;;;;;;;1.85;0.52;;;21.40;66.80;;;;;;5095588;28;20024;-73
2022/06/16 08:49:40;;;;;;;0.75;0.00;;;21.50;66.30;;;;;;5095621;28;20439;-73
2022/06/16 08:52:30;;;;;;;2.83;0.43;;;21.60;66.50;;;;;;5095365;28;20028;-74
2022/06/16 08:55:11;;;;;;;0.45;0.00;;;21.80;69.70;;;;;;5099922;28;20473;-82
2022/06/16 08:58:02;;;;;;;1.58;0.05;;;21.90;66.30;;;;;;5080087;28;20024;-81
2022/06/16 09:00:38;;;;;;;0.82;0.28;;;22.00;67.70;;;;;;5084213;28;20485;-81
2022/06/16 09:03:10;;;;;;;3.92;0.40;;;22.20;66.60;;;;;;5080620;28;20412;-79
2022/06/16 09:05:50;;;;;;;1.92;0.10;;;22.20;65.70;;;;;;5080230;28;20070;-79
2022/06/16 09:08:37;;;;;;;0.95;0.17;;;22.30;64.30;;;;;;5099571;28;20032;-80
2022/06/16 09:11:10;;;;;;;2.05;0.38;;;22.30;64.70;;;;;;5100323;28;20024;-80
2022/06/16 09:13:45;;;;;;;2.35;0.10;;;22.20;64.00;;;;;;5100132;28;20024;-80
2022/06/16 09:16:48;;;;;;;0.43;0.00;;;22.30;66.30;;;;;;5066632;28;20031;-79
2022/06/16 09:19:34;;;;;;;0.85;0.25;;;22.50;68.00;;;;;;5040376;28;20473;-80
2022/06/16 09:22:18;;;;;;;2.97;0.00;;;22.80;66.70;;;;;;5084900;28;20021;-81
2022/06/16 09:25:07;;;;;;;1.05;0.10;;;22.90;64.20;;;;;;5077055;28;20048;-80
2022/06/16 09:27:56;;;;;;;3.63;0.30;;;23.00;64.80;;;;;;5096089;28;20097;-80
2022/06/16 09:30:27;;;;;;;2.13;0.00;;;23.10;64.30;;;;;;5090117;28;20362;-79
2022/06/16 09:33:11;;;;;;;0.82;0.17;;;23.20;63.90;;;;;;5098019;28;20047;-80
2022/06/16 09:35:53;;;;;;;1.13;0.00;;;23.30;63.00;;;;;;5097928;28;20028;-79
2022/06/16 09:38:39;;;;;;;0.70;0.17;;;23.40;63.10;;;;;;5080372;28;20020;-79
2022/06/16 09:44:18;;;;;;;0.63;0.00;;;23.50;64.30;;;;;;5098562;28;20023;-79
2022/06/16 09:46:53;;;;;;;0.65;0.00;;;23.60;63.00;;;;;;5079390;28;20020;-79
2022/06/16 09:49:51;;;;;;;0.45;0.10;;;23.80;63.70;;;;;;5079901;28;20361;-80
2022/06/16 09:52:26;;;;;;;1.65;0.17;;;23.90;62.60;;;;;;5078251;28;20417;-80
2022/06/16 09:54:57;;;;;;;1.30;0.00;;;24.00;62.60;;;;;;5098260;28;20032;-81
2022/06/16 09:57:31;;;;;;;4.50;0.10;;;24.10;61.70;;;;;;5080242;28;20020;-81
2022/06/16 10:00:05;;;;;;;0.70;0.10;;;24.30;60.70;;;;;;5098272;28;20179;-81
2022/06/16 10:02:37;;;;;;;1.65;0.00;;;24.30;58.80;;;;;;5080509;28;20024;-81
2022/06/16 10:05:12;;;;;;;0.50;0.00;;;24.40;59.10;;;;;;5079604;28;20020;-81
2022/06/16 10:07:45;;;;;;;2.30;0.80;;;24.50;59.90;;;;;;5078893;28;20397;-81
2022/06/16 10:10:32;;;;;;;0.90;0.10;;;24.60;58.50;;;;;;5099027;28;20385;-80
2022/06/16 10:13:13;;;;;;;0.88;0.13;;;24.70;57.40;;;;;;5096635;28;20032;-78
2022/06/16 10:15:46;;;;;;;1.63;0.00;;;24.90;59.40;;;;;;5094338;28;20024;-78
2022/06/16 10:18:12;;;;;;;0.82;0.05;;;25.00;58.60;;;;;;5076525;28;20469;-78
2022/06/16 10:20:38;;;;;;;1.40;0.00;;;25.10;59.40;;;;;;5096813;28;20027;-78
2022/06/16 10:23:20;;;;;;;0.98;0.00;;;25.30;59.00;;;;;;5097792;28;20056;-77
2022/06/16 10:25:59;;;;;;;2.38;0.17;;;25.40;60.10;;;;;;5094249;28;20496;-76
2022/06/16 10:28:28;;;;;;;;;;;25.60;57.90;;;;;;5075957;28;20020;-76
2022/06/16 10:30:55;;;;;;;2.55;0.00;;;25.70;57.10;;;;;;5093926;28;19903;-79
2022/06/16 10:33:27;;;;;;;0.88;0.10;;;25.80;55.90;;;;;;5094562;28;20024;-78
2022/06/16 10:36:07;;;;;;;1.23;0.03;;;25.80;56.00;;;;;;5094601;28;20043;-78
2022/06/16 10:38:34;;;;;;;1.25;0.00;;;25.90;55.60;;;;;;5093877;28;20047;-77
2022/06/16 10:41:04;;;;;;;1.40;0.20;;;26.00;56.00;;;;;;5093680;28;20024;-77
2022/06/16 10:43:36;;;;;;;0.45;0.05;;;26.10;54.00;;;;;;5075385;28;20020;-77
2022/06/16 10:46:19;;;;;;;1.83;0.47;;;26.30;55.10;;;;;;5093384;28;20034;-77
2022/06/16 10:48:53;;;;;;;1.35;0.30;;;26.20;54.80;;;;;;5093986;28;20073;-77
2022/06/16 10:51:22;;;;;;;1.23;0.15;;;26.20;53.60;;;;;;5093536;28;20113;-77
2022/06/16 10:54:02;;;;;;;1.73;0.32;;;26.40;54.50;;;;;;5093814;28;20485;-77
2022/06/16 10:56:29;;;;;;;4.35;0.10;;;26.50;54.70;;;;;;5075391;28;20031;-77
2022/06/16 10:59:03;;;;;;;2.72;0.17;;;26.60;53.50;;;;;;5093888;28;20031;-77
2022/06/16 11:01:36;;;;;;;1.40;0.10;;;26.60;53.70;;;;;;5075274;28;20110;-77
2022/06/16 11:04:03;;;;;;;4.15;0.17;;;26.70;54.30;;;;;;5075486;28;20499;-78
2022/06/16 11:06:33;;;;;;;0.63;0.20;;;26.80;55.30;;;;;;5093600;28;20025;-78
2022/06/16 11:09:05;;;;;;;1.50;0.00;;;26.70;53.40;;;;;;5094528;28;20020;-79
2022/06/16 11:11:52;;;;;;;3.70;0.28;;;26.80;52.70;;;;;;5094940;28;20024;-79
2022/06/16 11:14:46;;;;;;;0.25;0.00;;;26.80;51.70;;;;;;5077167;28;20024;-79
2022/06/16 11:17:25;;;;;;;3.78;0.00;;;27.10;52.60;;;;;;5095127;28;20093;-78
2022/06/16 11:20:00;;;;;;;3.10;0.30;;;27.20;51.60;;;;;;5095097;28;20027;-79
2022/06/16 11:22:40;;;;;;;2.15;0.00;;;27.30;51.90;;;;;;5094518;28;20024;-79
2022/06/16 11:25:23;;;;;;;2.55;0.05;;;27.40;52.80;;;;;;5095147;28;20117;-79
2022/06/16 11:27:59;;;;;;;1.13;0.13;;;27.60;50.70;;;;;;5097038;28;20031;-78
2022/06/16 11:30:28;;;;;;;1.33;0.10;;;27.80;51.70;;;;;;5080591;28;20111;-78
2022/06/16 11:32:54;;;;;;;1.33;0.10;;;28.00;51.40;;;;;;5098481;28;20028;-77
2022/06/16 11:35:44;;;;;;;0.88;0.10;;;28.20;50.60;;;;;;5099511;28;20020;-79
2022/06/16 11:38:17;;;;;;;0.70;0.08;;;28.20;48.90;;;;;;5098199;28;20027;-77
2022/06/16 11:40:57;;;;;;;1.38;0.32;;;28.40;53.40;;;;;;5097235;28;20064;-77
2022/06/16 11:44:02;;;;;;;3.20;0.20;;;28.40;50.30;;;;;;5100113;28;20043;-79
2022/06/16 11:47:12;;;;;;;1.85;0.10;;;28.60;50.20;;;;;;5080258;23;20052;-78
2022/06/16 11:50:09;;;;;;;0.98;0.00;;;28.20;48.60;;;;;;5054845;28;20123;-78
2022/06/16 11:52:51;;;;;;;0.70;0.10;;;27.60;48.80;;;;;;5061328;28;20021;-79
2022/06/16 11:55:32;;;;;;;1.25;0.08;;;27.80;48.80;;;;;;5060564;28;20044;-79
2022/06/16 11:58:06;;;;;;;2.17;0.10;;;27.80;49.20;;;;;;5058793;28;20025;-79
2022/06/16 12:00:42;;;;;;;1.05;0.10;;;27.80;53.20;;;;;;5040990;28;20017;-79
2022/06/16 12:03:56;;;;;;;0.28;0.00;;;28.40;48.90;;;;;;5041435;28;20036;-79
2022/06/16 12:06:43;;;;;;;0.68;0.00;;;28.40;48.60;;;;;;5044348;22;20048;-79
2022/06/16 12:09:33;;;;;;;0.95;0.00;;;28.20;48.00;;;;;;5081932;28;20020;-79
2022/06/16 12:12:22;;;;;;;2.63;0.10;;;28.20;51.30;;;;;;5099492;28;20024;-79
2022/06/16 12:14:51;;;;;;;1.63;0.10;;;28.30;49.00;;;;;;5098745;28;20055;-79
2022/06/16 12:17:28;;;;;;;0.68;0.00;;;28.40;47.40;;;;;;5098787;28;20025;-78
2022/06/16 12:20:14;;;;;;;2.73;0.10;;;28.90;49.00;;;;;;5096971;28;20484;-79
2022/06/16 12:22:49;;;;;;;0.55;0.30;;;29.40;50.20;;;;;;5100232;28;20255;-79
2022/06/16 12:25:26;;;;;;;1.55;0.20;;;29.70;46.30;;;;;;5081402;28;20020;-78
2022/06/16 12:28:23;;;;;;;0.90;0.00;;;29.80;45.20;;;;;;5079780;28;20116;-77
2022/06/16 12:31:03;;;;;;;1.10;0.00;;;30.00;46.60;;;;;;5095989;28;20031;-78
2022/06/16 12:33:45;;;;;;;0.77;0.00;;;30.30;44.60;;;;;;5078104;28;20384;-78
2022/06/16 12:36:11;;;;;;;1.48;0.10;;;30.50;46.30;;;;;;5079606;28;20020;-78
2022/06/16 12:38:49;;;;;;;2.65;0.10;;;30.60;47.10;;;;;;5099618;28;20485;-79
2022/06/16 12:41:29;;;;;;;0.20;0.10;;;30.60;45.20;;;;;;5081621;28;20021;-78
2022/06/16 12:44:23;;;;;;;0.38;0.00;;;30.90;47.90;;;;;;5097676;28;20024;-79
2022/06/16 12:47:13;;;;;;;0.25;0.08;;;30.60;44.00;;;;;;5079895;28;20036;-79
2022/06/16 12:49:51;;;;;;;1.27;0.10;;;30.90;47.40;;;;;;5098537;28;20481;-79
2022/06/16 12:52:23;;;;;;;0.95;0.00;;;30.80;43.80;;;;;;5099079;28;20467;-78
2022/06/16 12:55:10;;;;;;;0.55;0.00;;;30.70;46.40;;;;;;5095838;28;20028;-79
2022/06/16 12:57:40;;;;;;;0.82;0.00;;;30.60;45.60;;;;;;5104568;28;20473;-79
2022/06/16 13:00:20;;;;;;;1.10;0.00;;;30.20;46.40;;;;;;5102078;28;20035;-79
2022/06/16 13:02:55;;;;;;;2.15;0.08;;;30.00;47.10;;;;;;5082602;28;20464;-78
2022/06/16 13:05:20;;;;;;;0.98;0.20;;;30.10;50.20;;;;;;5084506;28;20103;-79
2022/06/16 13:07:50;;;;;;;0.35;0.00;;;30.30;49.50;;;;;;5081543;28;20055;-78
2022/06/16 13:10:17;;;;;;;2.45;0.10;;;30.50;48.40;;;;;;5099078;28;20031;-78
2022/06/16 13:12:55;;;;;;;3.05;0.10;;;30.70;49.00;;;;;;5099461;28;20107;-78
2022/06/16 13:15:35;;;;;;;0.55;0.00;;;30.50;48.60;;;;;;5101693;28;20047;-78
2022/06/16 13:18:24;;;;;;;0.10;0.10;;;30.90;49.60;;;;;;5098744;28;20031;-78
2022/06/16 13:20:59;;;;;;;0.82;0.00;;;31.20;48.00;;;;;;5082849;28;20023;-78
2022/06/16 13:23:37;;;;;;;1.30;0.10;;;31.40;47.10;;;;;;5101180;28;20024;-79
2022/06/16 13:26:16;;;;;;;0.17;0.00;;;30.90;45.10;;;;;;5099352;28;20115;-79
2022/06/16 13:29:15;;;;;;;0.52;0.32;;;31.10;47.60;;;;;;5080860;28;20032;-79
2022/06/16 13:31:43;;;;;;;0.73;0.00;;;31.40;49.30;;;;;;5099683;28;20469;-79
2022/06/16 13:34:11;;;;;;;1.05;0.17;;;31.80;48.10;;;;;;5099305;28;20477;-79
2022/06/16 13:36:39;;;;;;;1.27;0.15;;;31.40;44.30;;;;;;5080413;28;20020;-79
2022/06/16 13:39:07;;;;;;;1.20;0.00;;;31.10;44.40;;;;;;5080373;28;20025;-79
2022/06/16 13:41:43;;;;;;;0.52;0.00;;;31.10;51.10;;;;;;5098241;28;20018;-79